메인 페이지
METAR-TAF:

METAR-TAF

공항 :

스탠리, 포클랜드 제도

위도: 51-49S, 경도: 058-27W, 고도: 74m

현재 날씨관측

예보는 47분 전, 21:50시(UTC)에 발표되었습니다.
북북서30kt, 순간 최대 풍속 40kt
온도 8°C
습도 87%
기압 997 hPa
시정 10km 이상
고도 1200ft 상공 구름 많음

METAR: EGYP 012150Z 33030G40KT 9999 BKN012 08/06 Q0997

시각: 19:37 (22:37 UTC)

예보

예보는 3 시간 21분 전, 19:16시(UTC)에 발표되었습니다.
예보 대상 시간: 01일 21시부터 02일 15시까지 (UTC)
북북서20kt, 순간 최대 풍속 30kt
시정 10km 이상
고도 1200ft 상공 구름 조금
확률 40% :
일시적
01일 21시부터 01일 23시까지 (UTC)
북북서30kt, 순간 최대 풍속 40kt
확률 30% :
일시적
01일 21시부터 02일 03시까지 (UTC)
여러 방향의 바람 8kt
고도 800ft 상공 구름 보통
전환 중
02일 02시부터 02일 05시까지 (UTC)
서북서15kt, 순간 최대 풍속 25kt
확률 40% :
일시적
02일 03시부터 02일 11시까지 (UTC)
고도 1000ft 상공 구름 보통
전환 중
02일 06시부터 02일 09시까지 (UTC)
서남서15kt, 순간 최대 풍속 25kt
전환 중
02일 09시부터 02일 12시까지 (UTC)
15kt
확률 40% :
일시적
02일 13시부터 02일 15시까지 (UTC)
15kt, 순간 최대 풍속 25kt

TAF: EGYP 011916Z 0121/0215 33020G30KT 9999 FEW012 520003 PROB40 TEMPO 0121/0123 33030G40KT 530003 PROB30 TEMPO 0121/0203 VRB08KT SCT008 560003 BECMG 0202/0205 29015G25KT 50//// PROB40 TEMPO 0203/0211 SCT010 BECMG 0206/0209 24015G25KT BECMG 0209/0212 27015KT PROB40 TEMPO 0213/0215 27015G25KT

4,000개 이상의 공항 관측 자료 및 예보 (METAR 및 TAF 보고).

지도상에서 검색 가능한 기상관측소가 노란 점과 빨간 점으로 표시되어 있습니다.

기상관측소 명을 보려면 표시 위로 마우스를 이동하세요.

날씨 관측과 예보를 보려면 클릭하세요.

지도 변경 : 확대하려면 엑스 표시가 있는 녹색 버튼, 축소하려면 빼기 표시가 있는 녹색 버튼, 다음 페이지의 지도를 보려면 녹색 화살표를 클릭하세요.


METAR-TAF: